createdAt,value
2023-05-15T00:00:34.787Z,16.52
2023-05-15T00:03:02.523Z,17.73
2023-05-15T00:05:29.356Z,15.57
2023-05-15T00:07:56.001Z,17.10
2023-05-15T00:10:22.663Z,16.35
2023-05-15T00:12:49.426Z,16.80
2023-05-15T00:15:16.040Z,16.88
2023-05-15T00:17:42.635Z,15.10
2023-05-15T00:20:10.085Z,15.93
2023-05-15T00:22:36.874Z,16.95
2023-05-15T00:25:03.766Z,15.88
2023-05-15T00:27:30.520Z,17.90
2023-05-15T00:29:57.149Z,20.02
2023-05-15T00:32:24.731Z,18.08
2023-05-15T00:34:51.269Z,17.92
2023-05-15T00:37:19.222Z,16.55
2023-05-15T00:39:46.106Z,16.23
2023-05-15T00:42:15.471Z,20.33
2023-05-15T00:44:44.370Z,17.35
2023-05-15T00:47:11.900Z,19.00
2023-05-15T00:49:39.053Z,19.23
2023-05-15T00:52:08.615Z,18.83
2023-05-15T00:54:35.542Z,18.75
2023-05-15T00:57:05.356Z,19.90
2023-05-15T00:59:33.092Z,19.33
2023-05-15T01:01:59.999Z,18.05
2023-05-15T01:04:26.754Z,16.55
2023-05-15T01:06:54.136Z,20.15
2023-05-15T01:09:23.696Z,20.95
2023-05-15T01:11:53.498Z,18.27
2023-05-15T01:14:20.057Z,16.75
2023-05-15T01:16:46.744Z,17.60
2023-05-15T01:19:13.498Z,18.80
2023-05-15T01:22:18.174Z,16.60
2023-05-15T01:25:06.829Z,19.65
2023-05-15T01:27:48.588Z,19.15
2023-05-15T01:30:24.521Z,14.77
2023-05-15T01:33:02.826Z,27.60
2023-05-15T01:35:41.651Z,17.45
2023-05-15T01:38:27.775Z,20.58
2023-05-15T01:41:03.365Z,18.77
2023-05-15T01:43:33.118Z,19.08
2023-05-15T01:46:00.963Z,20.15
2023-05-15T01:48:31.464Z,18.80
2023-05-15T01:51:02.794Z,22.13
2023-05-15T01:53:32.327Z,22.58
2023-05-15T01:55:59.973Z,18.73
2023-05-15T01:58:27.655Z,17.10
2023-05-15T02:00:55.463Z,18.98
2023-05-15T02:03:22.338Z,21.70
2023-05-15T02:05:50.732Z,22.55
2023-05-15T02:08:17.677Z,19.65
2023-05-15T02:10:44.579Z,19.67
2023-05-15T02:13:12.677Z,19.65
2023-05-15T02:15:39.558Z,27.02
2023-05-15T02:18:06.589Z,21.13
2023-05-15T02:20:33.283Z,24.92
2023-05-15T02:22:59.961Z,22.23
2023-05-15T02:25:43.695Z,20.23
2023-05-15T02:28:20.805Z,22.25
2023-05-15T02:31:05.820Z,22.60
2023-05-15T02:33:45.917Z,21.95
2023-05-15T02:36:19.142Z,18.75
2023-05-15T02:38:52.206Z,20.75
2023-05-15T02:41:19.840Z,20.92
2023-05-15T02:43:49.071Z,22.23
2023-05-15T02:46:16.378Z,21.55
2023-05-15T02:48:44.173Z,22.20
2023-05-15T02:51:11.126Z,20.23
2023-05-15T02:53:41.880Z,36.97
2023-05-15T02:56:16.562Z,37.53
2023-05-15T02:58:43.380Z,29.15
2023-05-15T03:01:28.902Z,24.70
2023-05-15T03:03:55.630Z,19.00
2023-05-15T03:06:22.492Z,22.65
2023-05-15T03:08:49.127Z,22.42
2023-05-15T03:11:16.356Z,21.52
2023-05-15T03:13:42.939Z,20.58
2023-05-15T03:16:09.805Z,24.67
2023-05-15T03:18:36.525Z,39.42
2023-05-15T03:21:03.288Z,23.52
2023-05-15T03:23:31.444Z,37.38
2023-05-15T03:25:59.222Z,23.38
2023-05-15T03:28:26.014Z,90.25
2023-05-15T03:30:52.668Z,50.22
2023-05-15T03:33:19.594Z,32.85
2023-05-15T03:35:46.441Z,53.47
2023-05-15T03:38:13.153Z,53.53
2023-05-15T03:40:39.874Z,53.67
2023-05-15T03:43:06.817Z,71.55
2023-05-15T03:45:37.160Z,29.98
2023-05-15T03:48:03.981Z,31.88
2023-05-15T03:50:30.885Z,26.95
2023-05-15T03:52:57.683Z,21.10
2023-05-15T03:55:24.594Z,31.75
2023-05-15T03:57:51.525Z,52.70
2023-05-15T04:00:19.147Z,83.60
2023-05-15T04:02:46.211Z,69.55
2023-05-15T04:05:13.026Z,84.90
2023-05-15T04:07:39.803Z,76.82
2023-05-15T04:10:07.075Z,25.48
2023-05-15T04:12:35.495Z,34.15
2023-05-15T04:15:16.980Z,55.25
2023-05-15T04:17:45.101Z,89.00
2023-05-15T04:20:14.353Z,51.65
2023-05-15T04:22:42.574Z,30.13
2023-05-15T04:25:11.040Z,84.38
2023-05-15T04:27:38.865Z,72.15
2023-05-15T04:30:06.495Z,31.30
2023-05-15T04:32:34.044Z,63.17
2023-05-15T04:35:01.486Z,37.22
2023-05-15T04:37:29.206Z,41.38
2023-05-15T04:39:55.849Z,34.55
2023-05-15T04:42:23.579Z,50.95
2023-05-15T04:44:50.305Z,45.53
2023-05-15T04:47:16.987Z,28.92
2023-05-15T04:49:43.681Z,46.58
2023-05-15T04:52:11.413Z,33.53
2023-05-15T04:54:38.103Z,28.85
2023-05-15T04:57:05.098Z,22.65
2023-05-15T04:59:31.789Z,28.10
2023-05-15T05:01:58.586Z,23.02
2023-05-15T05:04:25.368Z,18.10
2023-05-15T05:06:52.543Z,49.25
2023-05-15T05:09:20.093Z,29.70
2023-05-15T05:11:47.743Z,29.52
2023-05-15T05:14:15.294Z,63.47
2023-05-15T05:16:44.909Z,30.48
2023-05-15T05:19:11.791Z,28.98
2023-05-15T05:21:38.821Z,29.60
2023-05-15T05:24:05.950Z,39.42
2023-05-15T05:26:32.748Z,27.85
2023-05-15T05:28:59.452Z,14.10
2023-05-15T05:31:26.223Z,18.00
2023-05-15T05:33:52.981Z,16.05
2023-05-15T05:36:19.725Z,24.95
2023-05-15T05:38:46.541Z,13.63
2023-05-15T05:41:13.185Z,15.48
2023-05-15T05:43:39.820Z,21.08
2023-05-15T05:46:07.921Z,31.98
2023-05-15T05:48:34.593Z,34.90
2023-05-15T05:51:03.547Z,30.35
2023-05-15T05:53:30.279Z,15.63
2023-05-15T05:55:56.984Z,13.38
2023-05-15T05:58:26.441Z,14.77
2023-05-15T06:00:53.719Z,15.02
2023-05-15T06:03:24.600Z,15.38
2023-05-15T06:05:51.369Z,12.73
2023-05-15T06:08:18.142Z,14.20
2023-05-15T06:10:44.794Z,16.77
2023-05-15T06:13:11.931Z,20.85
2023-05-15T06:15:39.769Z,41.47
2023-05-15T06:18:06.781Z,15.15
2023-05-15T06:20:34.091Z,18.13
2023-05-15T06:23:00.861Z,18.00
2023-05-15T06:25:27.482Z,17.85
2023-05-15T06:27:54.151Z,24.60
2023-05-15T06:30:20.795Z,17.48
2023-05-15T06:32:47.537Z,18.98
2023-05-15T06:35:14.381Z,13.82
2023-05-15T06:37:41.113Z,18.50
2023-05-15T06:40:08.577Z,16.27
2023-05-15T06:42:35.560Z,15.35
2023-05-15T06:45:02.266Z,16.15
2023-05-15T06:47:29.086Z,15.32
2023-05-15T06:49:55.732Z,16.20
2023-05-15T06:52:22.392Z,14.82
2023-05-15T06:54:48.993Z,16.85
2023-05-15T06:57:16.062Z,17.05
2023-05-15T06:59:43.890Z,18.33
2023-05-15T07:02:10.879Z,16.65
2023-05-15T07:04:37.768Z,14.23
2023-05-15T07:07:04.669Z,17.75
2023-05-15T07:09:31.416Z,19.75
2023-05-15T07:11:58.102Z,20.15
2023-05-15T07:14:24.892Z,18.98
2023-05-15T07:16:51.692Z,18.38
2023-05-15T07:19:21.098Z,18.80
2023-05-15T07:21:48.063Z,19.45
2023-05-15T07:24:14.702Z,22.65
2023-05-15T07:26:50.647Z,16.77
2023-05-15T07:29:24.636Z,17.63
2023-05-15T07:31:52.703Z,17.23
2023-05-15T07:34:19.489Z,19.50
2023-05-15T07:36:46.087Z,22.05
2023-05-15T07:39:13.348Z,18.13
2023-05-15T07:41:40.024Z,22.35
2023-05-15T07:44:07.105Z,20.27
2023-05-15T07:46:34.774Z,18.42
2023-05-15T07:49:01.854Z,19.20
2023-05-15T07:51:47.303Z,15.40
2023-05-15T07:54:13.943Z,16.02
2023-05-15T07:56:40.664Z,15.90
2023-05-15T07:59:07.838Z,14.65
2023-05-15T08:01:34.797Z,14.23
2023-05-15T08:04:01.430Z,12.63
2023-05-15T08:06:28.141Z,14.43
2023-05-15T08:08:54.877Z,12.85
2023-05-15T08:11:22.213Z,14.95
2023-05-15T08:13:49.081Z,12.27
2023-05-15T08:16:16.224Z,14.82
2023-05-15T08:18:42.888Z,15.23
2023-05-15T08:21:09.520Z,11.02
2023-05-15T08:23:36.357Z,12.75
2023-05-15T08:26:02.957Z,10.73
2023-05-15T08:28:29.602Z,13.43
2023-05-15T08:30:56.292Z,9.20
2023-05-15T08:33:22.978Z,11.32
2023-05-15T08:35:49.710Z,9.52
2023-05-15T08:38:16.400Z,9.23
2023-05-15T08:40:47.358Z,8.93
2023-05-15T08:43:17.668Z,9.70
2023-05-15T08:45:44.731Z,8.75
2023-05-15T08:48:14.860Z,9.38
2023-05-15T08:50:43.651Z,8.90
2023-05-15T08:53:14.186Z,11.55
2023-05-15T08:55:42.269Z,9.38
2023-05-15T08:58:09.717Z,9.73
2023-05-15T09:00:38.785Z,10.10
2023-05-15T09:03:05.781Z,10.32
2023-05-15T09:05:32.857Z,9.13
2023-05-15T09:08:04.087Z,9.27
2023-05-15T09:10:31.716Z,12.07
2023-05-15T09:12:59.347Z,9.65
2023-05-15T09:15:27.264Z,8.85
2023-05-15T09:17:56.189Z,11.20
2023-05-15T09:20:37.154Z,9.65
2023-05-15T09:23:06.212Z,9.07
2023-05-15T09:25:42.749Z,8.65
2023-05-15T09:28:11.537Z,8.80
2023-05-15T09:30:39.457Z,8.07
2023-05-15T09:33:06.267Z,7.45
2023-05-15T09:35:32.973Z,8.35
2023-05-15T09:38:01.466Z,10.25
2023-05-15T09:40:32.603Z,8.40
2023-05-15T09:42:59.549Z,8.13
2023-05-15T09:45:29.924Z,9.55
2023-05-15T09:47:59.882Z,7.75
2023-05-15T09:50:37.146Z,7.35
2023-05-15T09:53:04.963Z,8.50
2023-05-15T09:55:34.917Z,7.72
2023-05-15T09:58:21.369Z,7.82
2023-05-15T10:00:49.699Z,7.72
2023-05-15T10:03:18.895Z,8.02
2023-05-15T10:05:45.816Z,7.50
2023-05-15T10:08:13.021Z,6.95
2023-05-15T10:10:40.051Z,7.22
2023-05-15T10:13:08.277Z,7.57
2023-05-15T10:15:35.561Z,7.10
2023-05-15T10:18:04.399Z,9.20
2023-05-15T10:20:49.863Z,7.30
2023-05-15T10:23:18.408Z,6.30
2023-05-15T10:25:56.138Z,7.25
2023-05-15T10:28:23.057Z,7.07
2023-05-15T10:30:49.922Z,7.38
2023-05-15T10:33:19.852Z,6.95
2023-05-15T10:35:48.514Z,8.63
2023-05-15T10:38:15.967Z,7.75
2023-05-15T10:40:43.745Z,8.38
2023-05-15T10:43:13.088Z,6.63
2023-05-15T10:45:40.102Z,8.00
2023-05-15T10:48:09.327Z,8.05
2023-05-15T10:50:37.790Z,8.18
2023-05-15T10:53:04.537Z,6.10
2023-05-15T10:55:31.553Z,6.50
2023-05-15T10:58:17.940Z,5.68
2023-05-15T11:00:45.670Z,5.55
2023-05-15T11:03:16.725Z,6.03
2023-05-15T11:06:09.901Z,8.05
2023-05-15T11:08:41.651Z,9.38
2023-05-15T11:11:10.672Z,9.00
2023-05-15T11:14:05.181Z,5.18
2023-05-15T11:16:53.806Z,5.43
2023-05-15T11:19:35.188Z,6.57
2023-05-15T11:22:16.899Z,5.10
2023-05-15T11:25:09.158Z,6.45
2023-05-15T11:27:40.250Z,6.57
2023-05-15T11:30:10.019Z,5.70
2023-05-15T11:32:52.803Z,6.32
2023-05-15T11:35:44.080Z,6.03
2023-05-15T11:38:10.974Z,6.80
2023-05-15T11:40:52.892Z,7.93
2023-05-15T11:43:32.829Z,5.50
2023-05-15T11:46:10.948Z,5.90
2023-05-15T11:48:40.107Z,5.97
2023-05-15T11:51:16.545Z,5.60
2023-05-15T11:53:43.580Z,5.13
2023-05-15T11:56:23.787Z,6.68
2023-05-15T11:58:51.978Z,5.55
2023-05-15T12:01:18.664Z,5.78
2023-05-15T12:03:48.319Z,6.40
2023-05-15T12:06:15.568Z,6.13
2023-05-15T12:08:42.354Z,8.02
2023-05-15T12:11:09.664Z,8.00
2023-05-15T12:13:36.388Z,7.25
2023-05-15T12:16:04.113Z,7.25
2023-05-15T12:18:32.369Z,7.70
2023-05-15T12:20:59.805Z,7.50
2023-05-15T12:23:28.639Z,6.85
2023-05-15T12:26:00.360Z,7.32
2023-05-15T12:28:27.468Z,8.55
2023-05-15T12:30:54.765Z,7.85
2023-05-15T12:33:21.898Z,10.27
2023-05-15T12:35:58.024Z,7.63
2023-05-15T12:38:26.958Z,7.15
2023-05-15T12:41:12.740Z,6.47
2023-05-15T12:43:39.640Z,6.85
2023-05-15T12:46:06.448Z,6.97
2023-05-15T12:48:33.564Z,6.25
2023-05-15T12:51:08.135Z,5.80
2023-05-15T12:53:36.407Z,6.43
2023-05-15T12:56:04.924Z,6.05
2023-05-15T12:58:31.632Z,5.35
2023-05-15T13:00:58.969Z,4.85
2023-05-15T13:03:26.519Z,4.28
2023-05-15T13:05:53.355Z,4.47
2023-05-15T13:08:20.521Z,7.30
2023-05-15T13:10:47.964Z,5.63
2023-05-15T13:13:15.588Z,6.25
2023-05-15T13:15:48.484Z,5.43
2023-05-15T13:18:18.606Z,5.78
2023-05-15T13:20:50.090Z,2.67
2023-05-15T13:23:19.491Z,2.72
2023-05-15T13:25:46.566Z,2.42
2023-05-15T13:28:13.932Z,2.63
2023-05-15T13:30:42.238Z,5.82
2023-05-15T13:33:10.616Z,2.83
2023-05-15T13:35:38.404Z,3.08
2023-05-15T13:38:25.212Z,2.72
2023-05-15T13:43:18.593Z,2.72
2023-05-15T13:45:45.259Z,3.15
2023-05-15T13:48:11.906Z,2.63
2023-05-15T13:50:57.554Z,2.67
2023-05-15T13:53:24.127Z,2.85
2023-05-15T13:55:51.894Z,2.90
2023-05-15T13:58:21.222Z,3.28
2023-05-15T14:00:48.874Z,3.90
2023-05-15T14:03:15.904Z,3.05
2023-05-15T14:05:42.618Z,2.20
2023-05-15T14:08:09.406Z,3.10
2023-05-15T14:10:37.505Z,2.72
2023-05-15T14:13:04.569Z,3.55
2023-05-15T14:15:31.155Z,3.20
2023-05-15T14:17:57.948Z,4.40
2023-05-15T14:20:25.695Z,3.95
2023-05-15T14:22:52.464Z,3.15
2023-05-15T14:25:19.171Z,2.92
2023-05-15T14:27:46.693Z,3.22
2023-05-15T14:30:14.529Z,5.10
2023-05-15T14:32:41.563Z,3.42
2023-05-15T14:35:08.319Z,3.63
2023-05-15T14:37:36.685Z,4.40
2023-05-15T14:40:05.108Z,5.50
2023-05-15T14:42:32.147Z,3.92
2023-05-15T14:44:58.895Z,3.50
2023-05-15T14:47:27.942Z,4.30
2023-05-15T14:49:54.580Z,3.97
2023-05-15T14:52:21.293Z,5.50
2023-05-15T14:54:56.959Z,4.85
2023-05-15T14:57:34.572Z,5.10
2023-05-15T15:00:02.455Z,6.18
2023-05-15T15:02:29.145Z,6.45
2023-05-15T15:04:57.974Z,7.40
2023-05-15T15:07:29.691Z,6.47
2023-05-15T15:09:56.319Z,7.43
2023-05-15T15:12:24.132Z,6.72
2023-05-15T15:14:50.760Z,6.93
2023-05-15T15:17:18.477Z,8.02
2023-05-15T15:19:50.857Z,7.65
2023-05-15T15:22:17.600Z,7.60
2023-05-15T15:24:44.299Z,7.90
2023-05-15T15:27:10.913Z,7.45
2023-05-15T15:29:37.567Z,7.70
2023-05-15T15:32:04.723Z,7.22
2023-05-15T15:34:31.332Z,7.63
2023-05-15T15:36:57.953Z,9.75
2023-05-15T15:39:24.733Z,7.47
2023-05-15T15:41:51.402Z,8.02
2023-05-15T15:44:18.292Z,8.55
2023-05-15T15:46:44.919Z,8.35
2023-05-15T15:49:11.694Z,7.63
2023-05-15T15:51:38.574Z,8.10
2023-05-15T15:54:05.531Z,8.60
2023-05-15T15:56:33.525Z,10.10
2023-05-15T15:59:00.162Z,9.02
2023-05-15T16:01:27.581Z,6.80
2023-05-15T16:03:54.349Z,6.72
2023-05-15T16:06:21.156Z,8.73
2023-05-15T16:08:47.756Z,8.60
2023-05-15T16:11:15.773Z,8.40
2023-05-15T16:13:43.728Z,8.40
2023-05-15T16:16:10.654Z,8.18
2023-05-15T16:18:37.565Z,8.82
2023-05-15T16:21:04.397Z,11.40
2023-05-15T16:23:37.961Z,8.73
2023-05-15T16:26:05.110Z,8.60
2023-05-15T16:28:32.438Z,8.30
2023-05-15T16:30:59.887Z,8.70
2023-05-15T16:33:26.871Z,8.77
2023-05-15T16:35:53.699Z,8.57
2023-05-15T16:38:20.998Z,8.52
2023-05-15T16:40:47.734Z,8.57
2023-05-15T16:43:15.790Z,8.15
2023-05-15T16:45:42.937Z,12.20
2023-05-15T16:48:09.606Z,9.68
2023-05-15T16:50:37.235Z,10.60
2023-05-15T16:53:04.905Z,9.35
2023-05-15T16:55:32.521Z,9.07
2023-05-15T16:57:59.435Z,8.15
2023-05-15T17:00:26.517Z,10.25
2023-05-15T17:02:53.791Z,8.80
2023-05-15T17:05:20.744Z,8.23
2023-05-15T17:07:47.481Z,8.70
2023-05-15T17:10:25.509Z,8.55
2023-05-15T17:15:28.038Z,9.65
2023-05-15T17:17:54.928Z,9.00
2023-05-15T17:20:21.619Z,7.65
2023-05-15T17:22:48.377Z,9.63
2023-05-15T17:25:15.041Z,8.77
2023-05-15T17:27:41.971Z,10.10
2023-05-15T17:30:10.441Z,6.75
2023-05-15T17:32:38.935Z,8.32
2023-05-15T17:35:06.450Z,7.57
2023-05-15T17:37:33.836Z,8.98
2023-05-15T17:40:00.873Z,8.18
2023-05-15T17:42:28.483Z,8.30
2023-05-15T17:44:56.476Z,9.85
2023-05-15T17:47:23.599Z,7.93
2023-05-15T17:49:50.355Z,7.53
2023-05-15T17:52:17.166Z,9.90
2023-05-15T17:54:43.835Z,8.57
2023-05-15T17:57:11.029Z,7.65
2023-05-15T17:59:37.804Z,7.95
2023-05-15T18:02:04.806Z,7.50
2023-05-15T18:04:31.493Z,8.68
2023-05-15T18:06:58.277Z,6.93
2023-05-15T18:09:25.450Z,7.70
2023-05-15T18:11:52.177Z,7.72
2023-05-15T18:14:18.958Z,8.38
2023-05-15T18:16:45.834Z,8.77
2023-05-15T18:19:12.761Z,11.75
2023-05-15T18:21:39.468Z,7.90
2023-05-15T18:24:06.745Z,8.05
2023-05-15T18:26:33.530Z,8.13
2023-05-15T18:29:00.161Z,8.73
2023-05-15T18:31:26.936Z,8.55
2023-05-15T18:33:53.735Z,9.40
2023-05-15T18:36:20.385Z,9.77
2023-05-15T18:38:47.008Z,9.52
2023-05-15T18:41:13.618Z,11.70
2023-05-15T18:43:40.597Z,12.98
2023-05-15T18:46:07.283Z,11.32
2023-05-15T18:48:33.873Z,9.38
2023-05-15T18:51:00.665Z,9.05
2023-05-15T18:53:28.446Z,9.32
2023-05-15T18:55:55.063Z,9.80
2023-05-15T18:58:22.051Z,9.38
2023-05-15T19:00:50.867Z,8.77
2023-05-15T19:03:18.879Z,9.68
2023-05-15T19:05:45.708Z,9.07
2023-05-15T19:08:12.310Z,8.25
2023-05-15T19:10:38.858Z,8.93
2023-05-15T19:13:05.808Z,10.80
2023-05-15T19:15:32.744Z,9.90
2023-05-15T19:17:59.497Z,9.43
2023-05-15T19:20:26.906Z,9.73
2023-05-15T19:22:55.749Z,8.38
2023-05-15T19:25:22.748Z,8.93
2023-05-15T19:27:49.939Z,7.80
2023-05-15T19:30:16.543Z,9.63
2023-05-15T19:32:43.270Z,9.30
2023-05-15T19:35:10.262Z,8.95
2023-05-15T19:37:37.417Z,13.18
2023-05-15T19:40:07.082Z,11.85
2023-05-15T19:42:33.787Z,10.88
2023-05-15T19:45:00.678Z,11.82
2023-05-15T19:47:27.484Z,10.02
2023-05-15T19:49:54.407Z,8.77
2023-05-15T19:52:21.155Z,10.10
2023-05-15T19:54:47.792Z,9.73
2023-05-15T19:57:14.420Z,9.13
2023-05-15T19:59:41.215Z,8.20
2023-05-15T20:02:11.229Z,9.40
2023-05-15T20:04:37.994Z,8.23
2023-05-15T20:07:05.203Z,8.00
2023-05-15T20:09:33.804Z,7.15
2023-05-15T20:12:00.883Z,7.50
2023-05-15T20:14:28.002Z,8.77
2023-05-15T20:16:54.782Z,7.53
2023-05-15T20:19:22.400Z,7.40
2023-05-15T20:21:50.646Z,7.95
2023-05-15T20:24:18.109Z,7.10
2023-05-15T20:26:45.198Z,8.05
2023-05-15T20:29:13.257Z,7.10
2023-05-15T20:31:40.570Z,9.25
2023-05-15T20:34:08.212Z,6.65
2023-05-15T20:36:34.970Z,7.10
2023-05-15T20:39:05.681Z,7.43
2023-05-15T20:41:33.552Z,6.75
2023-05-15T20:44:00.451Z,6.60
2023-05-15T20:46:29.937Z,6.80
2023-05-15T20:48:56.841Z,10.27
2023-05-15T20:51:24.103Z,6.57
2023-05-15T20:53:52.089Z,6.13
2023-05-15T20:56:18.963Z,5.88
2023-05-15T20:58:45.707Z,6.55
2023-05-15T21:01:12.447Z,6.40
2023-05-15T21:03:39.245Z,5.57
2023-05-15T21:06:06.069Z,6.75
2023-05-15T21:08:53.071Z,6.50
2023-05-15T21:11:19.806Z,5.75
2023-05-15T21:13:46.500Z,6.97
2023-05-15T21:16:13.153Z,5.25
2023-05-15T21:18:40.070Z,5.00
2023-05-15T21:21:07.309Z,5.05
2023-05-15T21:23:36.607Z,3.80
2023-05-15T21:26:03.955Z,5.25
2023-05-15T21:28:30.879Z,4.35
2023-05-15T21:30:57.838Z,3.90
2023-05-15T21:33:24.501Z,3.15
2023-05-15T21:35:51.678Z,3.33
2023-05-15T21:38:18.521Z,2.80
2023-05-15T21:40:45.304Z,4.03
2023-05-15T21:43:12.045Z,2.90
2023-05-15T21:45:38.828Z,3.22
2023-05-15T21:48:05.656Z,4.22
2023-05-15T21:50:32.784Z,2.13
2023-05-15T21:52:59.511Z,1.98
2023-05-15T21:55:26.328Z,2.13
2023-05-15T21:57:52.866Z,1.85
2023-05-15T22:00:19.758Z,1.95
2023-05-15T22:02:46.565Z,1.58
2023-05-15T22:05:13.542Z,1.30
2023-05-15T22:07:40.499Z,1.52
2023-05-15T22:10:07.738Z,1.83
2023-05-15T22:12:34.777Z,0.73
2023-05-15T22:15:01.384Z,0.80
2023-05-15T22:17:29.396Z,1.17
2023-05-15T22:20:08.126Z,0.88
2023-05-15T22:22:35.756Z,0.80
2023-05-15T22:25:02.755Z,1.05
2023-05-15T22:27:29.427Z,1.13
2023-05-15T22:29:56.425Z,1.13
2023-05-15T22:32:23.462Z,0.68
2023-05-15T22:34:50.329Z,0.73
2023-05-15T22:37:16.965Z,1.90
2023-05-15T22:39:43.939Z,1.58
2023-05-15T22:42:10.666Z,1.50
2023-05-15T22:44:37.565Z,1.77
2023-05-15T22:47:04.380Z,2.17
2023-05-15T22:49:31.183Z,2.55
2023-05-15T22:51:58.448Z,2.28
2023-05-15T22:54:25.262Z,1.40
2023-05-15T22:56:52.663Z,0.70
2023-05-15T22:59:19.980Z,3.75
2023-05-15T23:01:47.485Z,1.05
2023-05-15T23:04:15.187Z,1.52
2023-05-15T23:06:41.963Z,2.10
2023-05-15T23:09:09.822Z,0.88
2023-05-15T23:11:37.855Z,1.77
2023-05-15T23:14:04.605Z,2.95
2023-05-15T23:16:31.808Z,3.63
2023-05-15T23:18:59.839Z,2.33
2023-05-15T23:21:27.008Z,3.88
2023-05-15T23:23:54.026Z,3.00
2023-05-15T23:26:22.106Z,2.42
2023-05-15T23:28:48.833Z,4.45
2023-05-15T23:31:15.717Z,6.43
2023-05-15T23:33:42.985Z,4.95
2023-05-15T23:36:09.905Z,6.72
2023-05-15T23:38:37.611Z,4.18
2023-05-15T23:41:04.390Z,9.15
2023-05-15T23:43:32.224Z,4.68
2023-05-15T23:45:58.940Z,6.13
2023-05-15T23:48:26.350Z,3.85
2023-05-15T23:50:53.088Z,6.28
2023-05-15T23:53:20.918Z,5.03
2023-05-15T23:55:47.859Z,8.43
2023-05-15T23:58:14.610Z,5.65
